OI95 weather

Children's Hospital Heliport
Columbus, Ohio, United States

Public forecast

Using degrees Fahrenheit for public forecast. Weather courtesy of forecast.io.

Closest aviation weather report (METAR) to Children's Hospital Heliport

Closest report is John Glenn Columbus International Airport, 4.9 nm (9.1 km) ENE. Retrieved 2020/07/02 11:51 UTC (54 minutes ago):

KCMH 021151Z 02004KT 10SM FEW250 22/17 A3001 RMK AO2 SLP155 T02220167 10222 20189 51012

Closest aviation forecast (TAF) to Children's Hospital Heliport

Closest forecast is John Glenn Columbus International Airport, 4.9 nm (9.1 km) ENE. Retrieved 2020/07/02 12:22 UTC (23 minutes ago):

TAF KCMH 021120Z 0212/0312 04006KT P6SM FEW050 FM030000 VRB03KT P6SM SKC